BAW8LX EGLL-LXGB
Flight info
| Callsign | BAW8LX |
|---|---|
| Flight time | 2h 22m |
| Altitude | 35000 |
| Route | GOGSI N621 SAM M195 MARUK N621 LELNA DCT NOVAN DCT DELOG DCT CRISA DCT VULPE DCT MAR N864 PIMOS |
| Aircraft | A21N/M-SDE2E3FGHIRWXY/LB1 |
Departure
| Time | 2026-05-06 06:54 |
|---|---|
| Airport | London Heathrow Airport (EGLL) |
Arrival
| Time | 2026-05-06 09:16 |
|---|---|
| Airport | Gibraltar Airport (LXGB) |
| Time | Latitude | Longitude | Altitude | Speed | Heading |
|---|---|---|---|---|---|
| 2026-05-06 06:34 | 51.47381 | -0.46587 | 92 ft | 0 kts | 90° |
| 2026-05-06 06:45 | 51.47381 | -0.46588 | 91 ft | 1 kts | 90° |
| 2026-05-06 06:45 | 51.47381 | -0.46626 | 91 ft | 4 kts | 95° |
| 2026-05-06 06:45 | 51.47385 | -0.46668 | 91 ft | 4 kts | 103° |
| 2026-05-06 06:46 | 51.47393 | -0.46708 | 91 ft | 4 kts | 119° |
| 2026-05-06 06:46 | 51.47409 | -0.46737 | 94 ft | 4 kts | 160° |
| 2026-05-06 06:46 | 51.47418 | -0.46741 | 91 ft | 0 kts | 166° |
| 2026-05-06 06:48 | 51.47409 | -0.46738 | 94 ft | 4 kts | 166° |
| 2026-05-06 06:48 | 51.47379 | -0.46725 | 93 ft | 5 kts | 176° |
| 2026-05-06 06:49 | 51.47374 | -0.46725 | 93 ft | 6 kts | 178° |
| 2026-05-06 06:49 | 51.47358 | -0.46724 | 91 ft | 11 kts | 178° |
| 2026-05-06 06:49 | 51.47277 | -0.46726 | 91 ft | 12 kts | 179° |
| 2026-05-06 06:50 | 51.47185 | -0.46724 | 91 ft | 14 kts | 179° |
| 2026-05-06 06:50 | 51.47083 | -0.46733 | 91 ft | 16 kts | 201° |
| 2026-05-06 06:50 | 51.47009 | -0.46860 | 91 ft | 17 kts | 195° |
| 2026-05-06 06:50 | 51.46888 | -0.46860 | 91 ft | 18 kts | 181° |
| 2026-05-06 06:51 | 51.46756 | -0.46864 | 93 ft | 19 kts | 180° |
| 2026-05-06 06:51 | 51.46653 | -0.46957 | 93 ft | 21 kts | 289° |
| 2026-05-06 06:51 | 51.46665 | -0.47191 | 91 ft | 22 kts | 269° |
| 2026-05-06 06:51 | 51.46656 | -0.47438 | 91 ft | 23 kts | 271° |
| 2026-05-06 06:52 | 51.46654 | -0.47699 | 91 ft | 24 kts | 269° |
| 2026-05-06 06:52 | 51.46653 | -0.47972 | 92 ft | 24 kts | 269° |
| 2026-05-06 06:52 | 51.46652 | -0.48101 | 92 ft | 11 kts | 269° |
| 2026-05-06 06:52 | 51.46643 | -0.48234 | 95 ft | 13 kts | 240° |
| 2026-05-06 06:53 | 51.46555 | -0.48213 | 93 ft | 15 kts | 176° |
| 2026-05-06 06:53 | 51.46479 | -0.48132 | 95 ft | 16 kts | 86° |
| 2026-05-06 06:53 | 51.46480 | -0.47936 | 92 ft | 26 kts | 90° |
| 2026-05-06 06:53 | 51.46482 | -0.47167 | 92 ft | 112 kts | 89° |
| 2026-05-06 06:54 | 51.46493 | -0.45497 | 131 ft | 179 kts | 87° |
| 2026-05-06 06:54 | 51.46493 | -0.43423 | 855 ft | 190 kts | 88° |
| 2026-05-06 06:54 | 51.46479 | -0.41244 | 1767 ft | 204 kts | 87° |
| 2026-05-06 06:54 | 51.46194 | -0.38887 | 2491 ft | 235 kts | 108° |
| 2026-05-06 06:55 | 51.45132 | -0.36720 | 3192 ft | 259 kts | 135° |
| 2026-05-06 06:55 | 51.43860 | -0.34616 | 3984 ft | 265 kts | 128° |
| 2026-05-06 06:55 | 51.42400 | -0.32742 | 4793 ft | 276 kts | 153° |
| 2026-05-06 06:55 | 51.40518 | -0.32067 | 5511 ft | 284 kts | 183° |
| 2026-05-06 06:56 | 51.38644 | -0.32863 | 6017 ft | 279 kts | 213° |
| 2026-05-06 06:56 | 51.37139 | -0.34773 | 6868 ft | 277 kts | 226° |
| 2026-05-06 06:56 | 51.35739 | -0.36923 | 7734 ft | 279 kts | 226° |
| 2026-05-06 06:56 | 51.34315 | -0.39070 | 8579 ft | 283 kts | 225° |
| 2026-05-06 06:57 | 51.32853 | -0.41220 | 9433 ft | 288 kts | 224° |
| 2026-05-06 06:57 | 51.31306 | -0.43302 | 10215 ft | 295 kts | 222° |
| 2026-05-06 06:57 | 51.30024 | -0.45919 | 10597 ft | 308 kts | 248° |
| 2026-05-06 06:57 | 51.29368 | -0.49239 | 10934 ft | 326 kts | 258° |
| 2026-05-06 06:58 | 51.28830 | -0.52878 | 11257 ft | 345 kts | 258° |
| 2026-05-06 06:58 | 51.28235 | -0.56661 | 11895 ft | 353 kts | 257° |
| 2026-05-06 06:58 | 51.27571 | -0.60439 | 12678 ft | 356 kts | 255° |
| 2026-05-06 06:58 | 51.26849 | -0.64236 | 13487 ft | 359 kts | 254° |
| 2026-05-06 06:59 | 51.26106 | -0.68054 | 14210 ft | 362 kts | 254° |
| 2026-05-06 06:59 | 51.25356 | -0.71906 | 14874 ft | 366 kts | 254° |
| 2026-05-06 06:59 | 51.24607 | -0.75794 | 15580 ft | 367 kts | 254° |
| 2026-05-06 06:59 | 51.23851 | -0.79699 | 16271 ft | 370 kts | 254° |
| 2026-05-06 07:00 | 51.23088 | -0.83633 | 16910 ft | 373 kts | 254° |
| 2026-05-06 07:00 | 51.22311 | -0.87612 | 17536 ft | 376 kts | 253° |
| 2026-05-06 07:00 | 51.21524 | -0.91591 | 18159 ft | 379 kts | 253° |
| 2026-05-06 07:00 | 51.20510 | -0.95494 | 18716 ft | 383 kts | 242° |
| 2026-05-06 07:01 | 51.18884 | -0.98883 | 19247 ft | 388 kts | 227° |
| 2026-05-06 07:01 | 51.16947 | -1.01892 | 19770 ft | 391 kts | 225° |
| 2026-05-06 07:01 | 51.14949 | -1.04876 | 20290 ft | 393 kts | 225° |
| 2026-05-06 07:01 | 51.12957 | -1.07874 | 20803 ft | 396 kts | 225° |
| 2026-05-06 07:02 | 51.10960 | -1.10913 | 21288 ft | 399 kts | 225° |
| 2026-05-06 07:02 | 51.08953 | -1.13977 | 21799 ft | 402 kts | 225° |
| 2026-05-06 07:02 | 51.06931 | -1.17072 | 22314 ft | 404 kts | 225° |
| 2026-05-06 07:02 | 51.04900 | -1.20194 | 22808 ft | 407 kts | 225° |
| 2026-05-06 07:03 | 51.02842 | -1.23345 | 23312 ft | 410 kts | 225° |
| 2026-05-06 07:03 | 51.00781 | -1.26494 | 23788 ft | 413 kts | 225° |
| 2026-05-06 07:03 | 50.98708 | -1.29655 | 24202 ft | 416 kts | 225° |
| 2026-05-06 07:03 | 50.96610 | -1.32842 | 24626 ft | 418 kts | 224° |
| 2026-05-06 07:04 | 50.94341 | -1.35758 | 25049 ft | 422 kts | 216° |
| 2026-05-06 07:04 | 50.91923 | -1.38307 | 25444 ft | 425 kts | 214° |
| 2026-05-06 07:04 | 50.89438 | -1.40870 | 25854 ft | 427 kts | 214° |
| 2026-05-06 07:04 | 50.86940 | -1.43453 | 26209 ft | 431 kts | 215° |
| 2026-05-06 07:05 | 50.84423 | -1.46069 | 26551 ft | 434 kts | 214° |
| 2026-05-06 07:05 | 50.81891 | -1.48701 | 26903 ft | 437 kts | 215° |
| 2026-05-06 07:05 | 50.79339 | -1.51350 | 27264 ft | 440 kts | 215° |
| 2026-05-06 07:05 | 50.76773 | -1.54008 | 27610 ft | 442 kts | 214° |
| 2026-05-06 07:06 | 50.74187 | -1.56677 | 27969 ft | 445 kts | 215° |
| 2026-05-06 07:06 | 50.71587 | -1.59351 | 28312 ft | 447 kts | 214° |
| 2026-05-06 07:06 | 50.68976 | -1.62042 | 28640 ft | 450 kts | 215° |
| 2026-05-06 07:06 | 50.66350 | -1.64753 | 28947 ft | 452 kts | 215° |
| 2026-05-06 07:07 | 50.63712 | -1.67469 | 29294 ft | 454 kts | 214° |
| 2026-05-06 07:07 | 50.61039 | -1.70210 | 29799 ft | 451 kts | 214° |
| 2026-05-06 07:07 | 50.58455 | -1.72861 | 30264 ft | 448 kts | 214° |
| 2026-05-06 07:07 | 50.55844 | -1.75528 | 30593 ft | 448 kts | 214° |
| 2026-05-06 07:08 | 50.53226 | -1.78205 | 30892 ft | 449 kts | 214° |
| 2026-05-06 07:08 | 50.50611 | -1.80878 | 31194 ft | 449 kts | 214° |
| 2026-05-06 07:08 | 50.47991 | -1.83550 | 31486 ft | 450 kts | 214° |
| 2026-05-06 07:08 | 50.45353 | -1.86232 | 31770 ft | 451 kts | 214° |
| 2026-05-06 07:09 | 50.42721 | -1.88915 | 32016 ft | 453 kts | 214° |
| 2026-05-06 07:09 | 50.40077 | -1.91600 | 32310 ft | 453 kts | 214° |
| 2026-05-06 07:09 | 50.37430 | -1.94283 | 32552 ft | 454 kts | 214° |
| 2026-05-06 07:09 | 50.34775 | -1.96977 | 32845 ft | 455 kts | 214° |
| 2026-05-06 07:10 | 50.32120 | -1.99662 | 33150 ft | 454 kts | 214° |
| 2026-05-06 07:10 | 50.29463 | -2.02340 | 33399 ft | 455 kts | 214° |
| 2026-05-06 07:10 | 50.26773 | -2.04943 | 33686 ft | 455 kts | 210° |
| 2026-05-06 07:10 | 50.23864 | -2.06891 | 33929 ft | 457 kts | 198° |
| 2026-05-06 07:11 | 50.20742 | -2.07869 | 34106 ft | 458 kts | 187° |
| 2026-05-06 07:11 | 50.17566 | -2.08289 | 34330 ft | 458 kts | 185° |
| 2026-05-06 07:11 | 50.14390 | -2.08636 | 34567 ft | 457 kts | 185° |
| 2026-05-06 07:11 | 50.11216 | -2.08992 | 34755 ft | 457 kts | 185° |
| 2026-05-06 07:12 | 50.08044 | -2.09376 | 34934 ft | 458 kts | 185° |
| 2026-05-06 07:12 | 50.01697 | -2.10194 | 34986 ft | 457 kts | 185° |
| 2026-05-06 07:13 | 49.95443 | -2.11870 | 34961 ft | 456 kts | 197° |
| 2026-05-06 07:13 | 49.89391 | -2.14769 | 34962 ft | 455 kts | 198° |
| 2026-05-06 07:14 | 49.83347 | -2.17635 | 34962 ft | 454 kts | 198° |
| 2026-05-06 07:14 | 49.77288 | -2.20473 | 34966 ft | 455 kts | 198° |
| 2026-05-06 07:15 | 49.71232 | -2.23281 | 34966 ft | 454 kts | 197° |
| 2026-05-06 07:15 | 49.65223 | -2.26043 | 34958 ft | 455 kts | 197° |
| 2026-05-06 07:16 | 49.59145 | -2.28824 | 34963 ft | 456 kts | 197° |
| 2026-05-06 07:16 | 49.53061 | -2.31616 | 34959 ft | 456 kts | 197° |
| 2026-05-06 07:17 | 49.46988 | -2.34411 | 34942 ft | 455 kts | 197° |
| 2026-05-06 07:17 | 49.40930 | -2.37192 | 34938 ft | 454 kts | 197° |
| 2026-05-06 07:18 | 49.34871 | -2.39967 | 34940 ft | 454 kts | 197° |
| 2026-05-06 07:18 | 49.28814 | -2.42727 | 34942 ft | 454 kts | 197° |
| 2026-05-06 07:19 | 49.22754 | -2.45485 | 34941 ft | 454 kts | 197° |
| 2026-05-06 07:19 | 49.16696 | -2.48232 | 34938 ft | 454 kts | 197° |
| 2026-05-06 07:20 | 49.10637 | -2.50979 | 34938 ft | 454 kts | 197° |
| 2026-05-06 07:20 | 49.04582 | -2.53718 | 34942 ft | 454 kts | 197° |
| 2026-05-06 07:21 | 48.98518 | -2.56449 | 34945 ft | 454 kts | 197° |
| 2026-05-06 07:21 | 48.92456 | -2.59174 | 34946 ft | 454 kts | 197° |
| 2026-05-06 07:22 | 48.86386 | -2.61872 | 34945 ft | 454 kts | 197° |
| 2026-05-06 07:22 | 48.80299 | -2.64583 | 34949 ft | 456 kts | 197° |
| 2026-05-06 07:23 | 48.74209 | -2.67305 | 34946 ft | 456 kts | 197° |
| 2026-05-06 07:23 | 48.68114 | -2.70013 | 34939 ft | 456 kts | 197° |
| 2026-05-06 07:24 | 48.62018 | -2.72718 | 34953 ft | 456 kts | 197° |
| 2026-05-06 07:24 | 48.55926 | -2.75410 | 34946 ft | 456 kts | 197° |
| 2026-05-06 07:25 | 48.49832 | -2.78095 | 34946 ft | 456 kts | 197° |
| 2026-05-06 07:25 | 48.43741 | -2.80768 | 34946 ft | 456 kts | 197° |
| 2026-05-06 07:26 | 48.38674 | -2.82993 | 34953 ft | 456 kts | 197° |
| 2026-05-06 07:26 | 48.32578 | -2.85666 | 34949 ft | 456 kts | 197° |
| 2026-05-06 07:27 | 48.26483 | -2.88329 | 34945 ft | 456 kts | 197° |
| 2026-05-06 07:27 | 48.20393 | -2.90985 | 34947 ft | 456 kts | 197° |
| 2026-05-06 07:28 | 48.14296 | -2.93636 | 34946 ft | 457 kts | 197° |
| 2026-05-06 07:28 | 48.05145 | -2.97614 | 34937 ft | 457 kts | 197° |
| 2026-05-06 07:29 | 47.99039 | -3.00254 | 34945 ft | 457 kts | 197° |
| 2026-05-06 07:29 | 47.92932 | -3.02888 | 34944 ft | 457 kts | 197° |
| 2026-05-06 07:30 | 47.86825 | -3.05514 | 34949 ft | 457 kts | 197° |
| 2026-05-06 07:30 | 47.80713 | -3.08127 | 34949 ft | 457 kts | 197° |
| 2026-05-06 07:31 | 47.74600 | -3.10744 | 34962 ft | 457 kts | 197° |
| 2026-05-06 07:31 | 47.68518 | -3.13352 | 34961 ft | 458 kts | 197° |
| 2026-05-06 07:32 | 47.62352 | -3.15978 | 34954 ft | 458 kts | 197° |
| 2026-05-06 07:32 | 47.56270 | -3.18562 | 34955 ft | 458 kts | 197° |
| 2026-05-06 07:33 | 47.50134 | -3.21159 | 34949 ft | 459 kts | 197° |
| 2026-05-06 07:33 | 47.44000 | -3.23750 | 34950 ft | 459 kts | 197° |
| 2026-05-06 07:34 | 47.37861 | -3.26341 | 34951 ft | 459 kts | 197° |
| 2026-05-06 07:34 | 47.31724 | -3.28925 | 34955 ft | 460 kts | 197° |
| 2026-05-06 07:35 | 47.25554 | -3.31513 | 34953 ft | 462 kts | 197° |
| 2026-05-06 07:35 | 47.19369 | -3.34099 | 34958 ft | 463 kts | 197° |
| 2026-05-06 07:36 | 47.13177 | -3.36682 | 34956 ft | 461 kts | 197° |
| 2026-05-06 07:36 | 47.06980 | -3.39265 | 34959 ft | 464 kts | 197° |
| 2026-05-06 07:37 | 47.00775 | -3.41838 | 34958 ft | 463 kts | 197° |
| 2026-05-06 07:37 | 46.94581 | -3.44409 | 34963 ft | 462 kts | 197° |
| 2026-05-06 07:38 | 46.88369 | -3.46980 | 34962 ft | 464 kts | 197° |
| 2026-05-06 07:38 | 46.82155 | -3.49537 | 34960 ft | 465 kts | 197° |
| 2026-05-06 07:39 | 46.75932 | -3.52107 | 34969 ft | 463 kts | 197° |
| 2026-05-06 07:39 | 46.69716 | -3.54660 | 34961 ft | 464 kts | 196° |
| 2026-05-06 07:40 | 46.63501 | -3.57201 | 34964 ft | 465 kts | 197° |
| 2026-05-06 07:40 | 46.57276 | -3.59742 | 34965 ft | 463 kts | 197° |
| 2026-05-06 07:41 | 46.51048 | -3.62278 | 34967 ft | 465 kts | 196° |
| 2026-05-06 07:41 | 46.44833 | -3.64810 | 34964 ft | 464 kts | 197° |
| 2026-05-06 07:42 | 46.38619 | -3.67337 | 34967 ft | 463 kts | 197° |
| 2026-05-06 07:42 | 46.32383 | -3.69781 | 34968 ft | 465 kts | 192° |
| 2026-05-06 07:43 | 46.25967 | -3.70908 | 34974 ft | 465 kts | 186° |
| 2026-05-06 07:43 | 46.19519 | -3.71829 | 34974 ft | 464 kts | 186° |
| 2026-05-06 07:44 | 46.13083 | -3.72778 | 34969 ft | 466 kts | 186° |
| 2026-05-06 07:44 | 46.06691 | -3.73731 | 34969 ft | 464 kts | 186° |
| 2026-05-06 07:45 | 46.00259 | -3.74686 | 34971 ft | 465 kts | 186° |
| 2026-05-06 07:45 | 45.93828 | -3.75630 | 34971 ft | 464 kts | 186° |
| 2026-05-06 07:46 | 45.87390 | -3.76585 | 34975 ft | 465 kts | 186° |
| 2026-05-06 07:46 | 45.80962 | -3.77533 | 34975 ft | 465 kts | 186° |
| 2026-05-06 07:47 | 45.74527 | -3.78473 | 34977 ft | 464 kts | 186° |
| 2026-05-06 07:47 | 45.68101 | -3.79417 | 34978 ft | 465 kts | 186° |
| 2026-05-06 07:48 | 45.61673 | -3.80357 | 34977 ft | 464 kts | 186° |
| 2026-05-06 07:48 | 45.55241 | -3.81301 | 34977 ft | 464 kts | 186° |
| 2026-05-06 07:49 | 45.48819 | -3.82237 | 34974 ft | 464 kts | 186° |
| 2026-05-06 07:49 | 45.42393 | -3.83163 | 34980 ft | 463 kts | 186° |
| 2026-05-06 07:50 | 45.35983 | -3.84090 | 34984 ft | 464 kts | 186° |
| 2026-05-06 07:50 | 45.29575 | -3.85023 | 34985 ft | 462 kts | 186° |
| 2026-05-06 07:51 | 45.23168 | -3.85948 | 34987 ft | 463 kts | 186° |
| 2026-05-06 07:51 | 45.16786 | -3.86865 | 34985 ft | 461 kts | 186° |
| 2026-05-06 07:52 | 45.10399 | -3.87783 | 34988 ft | 461 kts | 186° |
| 2026-05-06 07:52 | 45.04029 | -3.88693 | 34984 ft | 460 kts | 186° |
| 2026-05-06 07:53 | 44.97659 | -3.89603 | 34992 ft | 460 kts | 186° |
| 2026-05-06 07:53 | 44.91295 | -3.90511 | 34988 ft | 460 kts | 186° |
| 2026-05-06 07:54 | 44.84944 | -3.91419 | 34988 ft | 458 kts | 186° |
| 2026-05-06 07:54 | 44.78636 | -3.92311 | 34992 ft | 459 kts | 186° |
| 2026-05-06 07:55 | 44.72294 | -3.93204 | 34986 ft | 458 kts | 186° |
| 2026-05-06 07:55 | 44.65950 | -3.94080 | 34989 ft | 458 kts | 186° |
| 2026-05-06 07:56 | 44.59615 | -3.94973 | 34992 ft | 458 kts | 187° |
| 2026-05-06 07:56 | 44.53264 | -3.95878 | 34993 ft | 457 kts | 187° |
| 2026-05-06 07:57 | 44.46957 | -3.96781 | 34993 ft | 456 kts | 187° |
| 2026-05-06 07:57 | 44.40652 | -3.97667 | 34993 ft | 455 kts | 187° |
| 2026-05-06 07:58 | 44.34350 | -3.98551 | 34991 ft | 455 kts | 187° |
| 2026-05-06 07:58 | 44.28047 | -3.99314 | 34996 ft | 454 kts | 186° |
| 2026-05-06 07:59 | 44.21747 | -4.00028 | 34997 ft | 454 kts | 186° |
| 2026-05-06 07:59 | 44.15447 | -4.00740 | 34992 ft | 454 kts | 186° |
| 2026-05-06 08:00 | 44.09139 | -4.01456 | 35003 ft | 455 kts | 186° |
| 2026-05-06 08:00 | 44.02826 | -4.02174 | 35003 ft | 455 kts | 187° |
| 2026-05-06 08:01 | 43.96512 | -4.02895 | 35011 ft | 455 kts | 186° |
| 2026-05-06 08:01 | 43.90167 | -4.03616 | 35003 ft | 460 kts | 187° |
| 2026-05-06 08:02 | 43.83795 | -4.04336 | 35014 ft | 459 kts | 187° |
| 2026-05-06 08:02 | 43.77422 | -4.05051 | 35011 ft | 460 kts | 187° |
| 2026-05-06 08:03 | 43.71058 | -4.05762 | 35011 ft | 459 kts | 187° |
| 2026-05-06 08:03 | 43.64688 | -4.06478 | 35017 ft | 459 kts | 187° |
| 2026-05-06 08:04 | 43.58331 | -4.07191 | 35018 ft | 459 kts | 187° |
| 2026-05-06 08:04 | 43.51972 | -4.07908 | 35016 ft | 455 kts | 187° |
| 2026-05-06 08:05 | 43.45717 | -4.08613 | 35020 ft | 454 kts | 187° |
| 2026-05-06 08:05 | 43.39379 | -4.09318 | 35023 ft | 454 kts | 187° |
| 2026-05-06 08:06 | 43.33119 | -4.10016 | 35018 ft | 455 kts | 187° |
| 2026-05-06 08:06 | 43.26802 | -4.10715 | 35023 ft | 456 kts | 187° |
| 2026-05-06 08:07 | 43.20487 | -4.11415 | 35024 ft | 456 kts | 187° |
| 2026-05-06 08:07 | 43.14168 | -4.12115 | 35007 ft | 456 kts | 188° |
| 2026-05-06 08:08 | 43.07827 | -4.12815 | 35014 ft | 457 kts | 188° |
| 2026-05-06 08:08 | 43.01481 | -4.13518 | 35023 ft | 457 kts | 188° |
| 2026-05-06 08:09 | 42.95137 | -4.14212 | 35023 ft | 457 kts | 188° |
| 2026-05-06 08:09 | 42.88798 | -4.14908 | 35015 ft | 457 kts | 188° |
| 2026-05-06 08:10 | 42.82461 | -4.15603 | 35021 ft | 456 kts | 188° |
| 2026-05-06 08:10 | 42.76131 | -4.16296 | 35022 ft | 456 kts | 188° |
| 2026-05-06 08:11 | 42.70832 | -4.16873 | 35021 ft | 456 kts | 188° |
| 2026-05-06 08:11 | 42.63473 | -4.17672 | 35021 ft | 456 kts | 188° |
| 2026-05-06 08:12 | 42.58175 | -4.18245 | 35023 ft | 456 kts | 188° |
| 2026-05-06 08:12 | 42.51890 | -4.18927 | 35008 ft | 455 kts | 188° |
| 2026-05-06 08:13 | 42.45614 | -4.19607 | 35021 ft | 452 kts | 188° |
| 2026-05-06 08:13 | 42.39347 | -4.20284 | 35026 ft | 452 kts | 188° |
| 2026-05-06 08:14 | 42.33040 | -4.20963 | 35029 ft | 452 kts | 188° |
| 2026-05-06 08:14 | 42.26800 | -4.21633 | 35026 ft | 449 kts | 189° |
| 2026-05-06 08:15 | 42.20614 | -4.22297 | 35030 ft | 449 kts | 189° |
| 2026-05-06 08:15 | 42.14386 | -4.22965 | 35027 ft | 449 kts | 189° |
| 2026-05-06 08:16 | 42.08171 | -4.23628 | 35017 ft | 447 kts | 189° |
| 2026-05-06 08:16 | 42.01985 | -4.24286 | 35025 ft | 446 kts | 189° |
| 2026-05-06 08:17 | 41.95798 | -4.24948 | 35026 ft | 446 kts | 189° |
| 2026-05-06 08:17 | 41.89606 | -4.25607 | 35007 ft | 446 kts | 189° |
| 2026-05-06 08:18 | 41.83442 | -4.26260 | 35015 ft | 444 kts | 189° |
| 2026-05-06 08:18 | 41.77278 | -4.26911 | 35015 ft | 444 kts | 189° |
| 2026-05-06 08:19 | 41.71123 | -4.27561 | 35018 ft | 444 kts | 189° |
| 2026-05-06 08:19 | 41.64973 | -4.28211 | 35012 ft | 441 kts | 189° |
| 2026-05-06 08:20 | 41.58850 | -4.28854 | 35001 ft | 441 kts | 189° |
| 2026-05-06 08:20 | 41.52734 | -4.29497 | 35012 ft | 441 kts | 189° |
| 2026-05-06 08:21 | 41.46613 | -4.30139 | 34993 ft | 441 kts | 189° |
| 2026-05-06 08:21 | 41.40514 | -4.30777 | 34995 ft | 439 kts | 189° |
| 2026-05-06 08:22 | 41.34421 | -4.31417 | 35000 ft | 439 kts | 189° |
| 2026-05-06 08:22 | 41.28331 | -4.32051 | 35006 ft | 439 kts | 189° |
| 2026-05-06 08:23 | 41.22283 | -4.32680 | 35002 ft | 438 kts | 189° |
| 2026-05-06 08:23 | 41.16169 | -4.33310 | 35002 ft | 438 kts | 189° |
| 2026-05-06 08:24 | 41.10098 | -4.33941 | 35002 ft | 438 kts | 189° |
| 2026-05-06 08:24 | 41.04025 | -4.34569 | 34983 ft | 437 kts | 189° |
| 2026-05-06 08:25 | 40.98027 | -4.35192 | 35002 ft | 435 kts | 189° |
| 2026-05-06 08:25 | 40.91998 | -4.35812 | 35009 ft | 435 kts | 189° |
| 2026-05-06 08:26 | 40.85963 | -4.36431 | 35007 ft | 435 kts | 189° |
| 2026-05-06 08:26 | 40.79935 | -4.37051 | 34998 ft | 434 kts | 190° |
| 2026-05-06 08:27 | 40.73925 | -4.37667 | 35002 ft | 433 kts | 190° |
| 2026-05-06 08:27 | 40.67921 | -4.38283 | 35004 ft | 433 kts | 190° |
| 2026-05-06 08:28 | 40.61916 | -4.38897 | 34994 ft | 433 kts | 190° |
| 2026-05-06 08:28 | 40.55906 | -4.39508 | 34997 ft | 433 kts | 190° |
| 2026-05-06 08:29 | 40.49896 | -4.40122 | 34999 ft | 433 kts | 190° |
| 2026-05-06 08:29 | 40.43895 | -4.40730 | 34997 ft | 433 kts | 190° |
| 2026-05-06 08:30 | 40.37886 | -4.41337 | 34969 ft | 433 kts | 190° |
| 2026-05-06 08:30 | 40.31907 | -4.41941 | 34984 ft | 430 kts | 190° |
| 2026-05-06 08:31 | 40.25933 | -4.42545 | 34995 ft | 430 kts | 190° |
| 2026-05-06 08:31 | 40.19962 | -4.43145 | 34985 ft | 430 kts | 190° |
| 2026-05-06 08:32 | 40.13991 | -4.43746 | 34978 ft | 429 kts | 190° |
| 2026-05-06 08:32 | 40.08042 | -4.44339 | 34984 ft | 429 kts | 190° |
| 2026-05-06 08:33 | 40.02090 | -4.44939 | 34986 ft | 429 kts | 190° |
| 2026-05-06 08:33 | 39.96141 | -4.45530 | 34985 ft | 429 kts | 190° |
| 2026-05-06 08:34 | 39.87239 | -4.46425 | 34979 ft | 427 kts | 191° |
| 2026-05-06 08:35 | 39.81319 | -4.47022 | 34977 ft | 427 kts | 191° |
| 2026-05-06 08:35 | 39.75401 | -4.47610 | 34977 ft | 427 kts | 191° |
| 2026-05-06 08:36 | 39.69481 | -4.48194 | 34967 ft | 425 kts | 191° |
| 2026-05-06 08:36 | 39.63591 | -4.48774 | 34974 ft | 424 kts | 191° |
| 2026-05-06 08:37 | 39.57705 | -4.49358 | 34971 ft | 424 kts | 191° |
| 2026-05-06 08:37 | 39.51815 | -4.49940 | 34972 ft | 425 kts | 191° |
| 2026-05-06 08:38 | 39.45966 | -4.50514 | 34951 ft | 423 kts | 191° |
| 2026-05-06 08:38 | 39.40112 | -4.51090 | 34963 ft | 422 kts | 191° |
| 2026-05-06 08:39 | 39.34257 | -4.51665 | 34968 ft | 422 kts | 191° |
| 2026-05-06 08:39 | 39.28406 | -4.52250 | 34968 ft | 422 kts | 191° |
| 2026-05-06 08:40 | 39.22557 | -4.52818 | 34966 ft | 420 kts | 191° |
| 2026-05-06 08:40 | 39.16723 | -4.53388 | 34966 ft | 420 kts | 191° |
| 2026-05-06 08:41 | 39.10889 | -4.53964 | 34967 ft | 420 kts | 192° |
| 2026-05-06 08:41 | 39.05063 | -4.54532 | 34968 ft | 420 kts | 191° |
| 2026-05-06 08:42 | 38.99233 | -4.55093 | 34948 ft | 419 kts | 192° |
| 2026-05-06 08:42 | 38.93427 | -4.55716 | 34967 ft | 416 kts | 194° |
| 2026-05-06 08:43 | 38.87720 | -4.56894 | 34967 ft | 415 kts | 196° |
| 2026-05-06 08:43 | 38.82025 | -4.58102 | 34968 ft | 415 kts | 196° |
| 2026-05-06 08:44 | 38.76331 | -4.59282 | 34962 ft | 414 kts | 196° |
| 2026-05-06 08:44 | 38.70649 | -4.60473 | 34964 ft | 414 kts | 196° |
| 2026-05-06 08:45 | 38.64960 | -4.61664 | 34962 ft | 414 kts | 196° |
| 2026-05-06 08:45 | 38.59274 | -4.62837 | 34961 ft | 414 kts | 196° |
| 2026-05-06 08:46 | 38.53584 | -4.64006 | 34945 ft | 413 kts | 196° |
| 2026-05-06 08:46 | 38.47931 | -4.65175 | 34956 ft | 411 kts | 196° |
| 2026-05-06 08:47 | 38.42289 | -4.66345 | 34961 ft | 411 kts | 196° |
| 2026-05-06 08:47 | 38.36635 | -4.67506 | 34955 ft | 411 kts | 196° |
| 2026-05-06 08:48 | 38.30992 | -4.68670 | 34959 ft | 411 kts | 196° |
| 2026-05-06 08:48 | 38.25341 | -4.69824 | 34952 ft | 411 kts | 196° |
| 2026-05-06 08:49 | 38.19688 | -4.70979 | 34956 ft | 411 kts | 196° |
| 2026-05-06 08:49 | 38.14041 | -4.72133 | 34952 ft | 411 kts | 196° |
| 2026-05-06 08:50 | 38.08392 | -4.73273 | 34934 ft | 411 kts | 196° |
| 2026-05-06 08:50 | 38.02753 | -4.74425 | 34949 ft | 410 kts | 196° |
| 2026-05-06 08:51 | 37.97121 | -4.75581 | 34951 ft | 410 kts | 196° |
| 2026-05-06 08:51 | 37.91482 | -4.76733 | 34967 ft | 410 kts | 196° |
| 2026-05-06 08:52 | 37.85840 | -4.77873 | 34965 ft | 410 kts | 196° |
| 2026-05-06 08:52 | 37.80231 | -4.79012 | 34668 ft | 407 kts | 196° |
| 2026-05-06 08:52 | 37.77422 | -4.79571 | 34414 ft | 409 kts | 196° |
| 2026-05-06 08:53 | 37.74647 | -4.80124 | 34173 ft | 409 kts | 196° |
| 2026-05-06 08:53 | 37.71839 | -4.80685 | 33934 ft | 409 kts | 196° |
| 2026-05-06 08:53 | 37.69025 | -4.81252 | 33655 ft | 410 kts | 196° |
| 2026-05-06 08:53 | 37.66202 | -4.81809 | 33384 ft | 411 kts | 196° |
| 2026-05-06 08:54 | 37.63382 | -4.82376 | 32992 ft | 409 kts | 196° |
| 2026-05-06 08:54 | 37.60575 | -4.82939 | 32391 ft | 407 kts | 196° |
| 2026-05-06 08:54 | 37.57775 | -4.83498 | 31770 ft | 407 kts | 195° |
| 2026-05-06 08:54 | 37.54994 | -4.84054 | 31212 ft | 405 kts | 196° |
| 2026-05-06 08:55 | 37.52219 | -4.84611 | 30702 ft | 402 kts | 195° |
| 2026-05-06 08:55 | 37.49460 | -4.85168 | 30187 ft | 400 kts | 196° |
| 2026-05-06 08:55 | 37.46722 | -4.85722 | 29632 ft | 398 kts | 195° |
| 2026-05-06 08:55 | 37.43998 | -4.86271 | 29057 ft | 395 kts | 195° |
| 2026-05-06 08:56 | 37.41295 | -4.86812 | 28514 ft | 392 kts | 195° |
| 2026-05-06 08:56 | 37.38611 | -4.87346 | 28012 ft | 389 kts | 195° |
| 2026-05-06 08:56 | 37.36810 | -4.87707 | 27650 ft | 389 kts | 195° |
| 2026-05-06 08:56 | 37.34140 | -4.88248 | 27152 ft | 387 kts | 195° |
| 2026-05-06 08:57 | 37.31490 | -4.88783 | 26639 ft | 385 kts | 194° |
| 2026-05-06 08:57 | 37.28860 | -4.89314 | 26128 ft | 382 kts | 194° |
| 2026-05-06 08:57 | 37.26238 | -4.89840 | 25626 ft | 381 kts | 194° |
| 2026-05-06 08:57 | 37.23624 | -4.90359 | 25146 ft | 379 kts | 194° |
| 2026-05-06 08:58 | 37.21031 | -4.90874 | 24641 ft | 377 kts | 194° |
| 2026-05-06 08:58 | 37.18442 | -4.91390 | 24128 ft | 376 kts | 194° |
| 2026-05-06 08:58 | 37.15860 | -4.91905 | 23628 ft | 375 kts | 193° |
| 2026-05-06 08:58 | 37.13284 | -4.92423 | 23060 ft | 374 kts | 193° |
| 2026-05-06 08:59 | 37.10759 | -4.92929 | 22510 ft | 371 kts | 193° |
| 2026-05-06 08:59 | 37.08182 | -4.93443 | 21969 ft | 369 kts | 193° |
| 2026-05-06 08:59 | 37.05637 | -4.93892 | 21447 ft | 370 kts | 188° |
| 2026-05-06 08:59 | 37.03060 | -4.93892 | 20934 ft | 371 kts | 182° |
| 2026-05-06 09:00 | 37.00491 | -4.93751 | 20435 ft | 368 kts | 181° |
| 2026-05-06 09:00 | 36.97974 | -4.93603 | 19969 ft | 366 kts | 181° |
| 2026-05-06 09:00 | 36.95442 | -4.93460 | 19510 ft | 363 kts | 181° |
| 2026-05-06 09:00 | 36.92925 | -4.93325 | 19056 ft | 361 kts | 181° |
| 2026-05-06 09:01 | 36.90419 | -4.93195 | 18626 ft | 360 kts | 181° |
| 2026-05-06 09:01 | 36.87885 | -4.93067 | 18182 ft | 359 kts | 181° |
| 2026-05-06 09:01 | 36.85420 | -4.92941 | 17715 ft | 359 kts | 181° |
| 2026-05-06 09:01 | 36.82887 | -4.92813 | 17231 ft | 359 kts | 181° |
| 2026-05-06 09:02 | 36.80422 | -4.92689 | 16780 ft | 359 kts | 181° |
| 2026-05-06 09:02 | 36.77926 | -4.92565 | 16349 ft | 359 kts | 181° |
| 2026-05-06 09:02 | 36.75436 | -4.92439 | 15889 ft | 358 kts | 180° |
| 2026-05-06 09:02 | 36.72947 | -4.92310 | 15462 ft | 358 kts | 180° |
| 2026-05-06 09:03 | 36.70457 | -4.92181 | 15038 ft | 357 kts | 180° |
| 2026-05-06 09:03 | 36.67977 | -4.92054 | 14620 ft | 356 kts | 180° |
| 2026-05-06 09:03 | 36.65501 | -4.91926 | 14197 ft | 356 kts | 180° |
| 2026-05-06 09:03 | 36.63026 | -4.91799 | 13767 ft | 356 kts | 180° |
| 2026-05-06 09:04 | 36.60546 | -4.91670 | 13292 ft | 356 kts | 180° |
| 2026-05-06 09:04 | 36.58097 | -4.91540 | 12851 ft | 350 kts | 179° |
| 2026-05-06 09:04 | 36.55667 | -4.91413 | 12471 ft | 348 kts | 180° |
| 2026-05-06 09:04 | 36.53249 | -4.91295 | 12058 ft | 348 kts | 180° |
| 2026-05-06 09:05 | 36.50831 | -4.91177 | 11631 ft | 348 kts | 179° |
| 2026-05-06 09:05 | 36.48417 | -4.91055 | 11212 ft | 347 kts | 179° |
| 2026-05-06 09:05 | 36.46019 | -4.90935 | 10787 ft | 339 kts | 179° |
| 2026-05-06 09:05 | 36.43714 | -4.90815 | 10381 ft | 324 kts | 180° |
| 2026-05-06 09:06 | 36.41518 | -4.90704 | 10089 ft | 310 kts | 180° |
| 2026-05-06 09:06 | 36.39410 | -4.90593 | 9924 ft | 295 kts | 180° |
| 2026-05-06 09:06 | 36.37389 | -4.90490 | 9777 ft | 289 kts | 180° |
| 2026-05-06 09:06 | 36.35389 | -4.90391 | 9520 ft | 286 kts | 180° |
| 2026-05-06 09:07 | 36.33411 | -4.90292 | 9242 ft | 284 kts | 180° |
| 2026-05-06 09:07 | 36.31448 | -4.90193 | 8949 ft | 282 kts | 180° |
| 2026-05-06 09:07 | 36.29489 | -4.90091 | 8647 ft | 281 kts | 180° |
| 2026-05-06 09:07 | 36.27544 | -4.90017 | 8285 ft | 278 kts | 187° |
| 2026-05-06 09:08 | 36.25743 | -4.90724 | 7615 ft | 272 kts | 217° |
| 2026-05-06 09:08 | 36.24434 | -4.92376 | 6935 ft | 270 kts | 234° |
| 2026-05-06 09:08 | 36.23256 | -4.94200 | 6303 ft | 272 kts | 231° |
| 2026-05-06 09:08 | 36.22003 | -4.95956 | 5709 ft | 270 kts | 229° |
| 2026-05-06 09:09 | 36.20729 | -4.97597 | 5321 ft | 260 kts | 227° |
| 2026-05-06 09:09 | 36.19483 | -4.99125 | 4934 ft | 249 kts | 227° |
| 2026-05-06 09:09 | 36.18256 | -5.00598 | 4399 ft | 245 kts | 226° |
| 2026-05-06 09:09 | 36.17039 | -5.02025 | 3937 ft | 232 kts | 225° |
| 2026-05-06 09:10 | 36.16107 | -5.03490 | 3737 ft | 208 kts | 249° |
| 2026-05-06 09:10 | 36.15944 | -5.05197 | 3328 ft | 194 kts | 272° |
| 2026-05-06 09:10 | 36.15958 | -5.06834 | 2847 ft | 188 kts | 271° |
| 2026-05-06 09:10 | 36.15939 | -5.08438 | 2407 ft | 183 kts | 269° |
| 2026-05-06 09:11 | 36.15901 | -5.09964 | 2148 ft | 169 kts | 269° |
| 2026-05-06 09:11 | 36.15867 | -5.11302 | 1951 ft | 144 kts | 269° |
| 2026-05-06 09:11 | 36.15885 | -5.12495 | 1566 ft | 140 kts | 275° |
| 2026-05-06 09:11 | 36.15884 | -5.13704 | 1494 ft | 140 kts | 270° |
| 2026-05-06 09:12 | 36.15852 | -5.14893 | 1485 ft | 139 kts | 269° |
| 2026-05-06 09:12 | 36.15795 | -5.16081 | 1484 ft | 136 kts | 269° |
| 2026-05-06 09:12 | 36.15750 | -5.17250 | 1486 ft | 136 kts | 270° |
| 2026-05-06 09:12 | 36.15696 | -5.18420 | 1487 ft | 135 kts | 270° |
| 2026-05-06 09:13 | 36.15633 | -5.19575 | 1492 ft | 134 kts | 268° |
| 2026-05-06 09:13 | 36.15585 | -5.20724 | 1488 ft | 133 kts | 270° |
| 2026-05-06 09:13 | 36.15541 | -5.21878 | 1493 ft | 135 kts | 269° |
| 2026-05-06 09:13 | 36.15487 | -5.23027 | 1518 ft | 133 kts | 268° |
| 2026-05-06 09:14 | 36.15410 | -5.24178 | 1495 ft | 135 kts | 266° |
| 2026-05-06 09:14 | 36.15314 | -5.25331 | 1415 ft | 134 kts | 265° |
| 2026-05-06 09:14 | 36.15273 | -5.26493 | 1350 ft | 136 kts | 269° |
| 2026-05-06 09:14 | 36.15292 | -5.27636 | 1203 ft | 134 kts | 272° |
| 2026-05-06 09:15 | 36.15336 | -5.28789 | 975 ft | 133 kts | 270° |
| 2026-05-06 09:15 | 36.15312 | -5.29927 | 732 ft | 134 kts | 265° |
| 2026-05-06 09:15 | 36.15267 | -5.31069 | 532 ft | 133 kts | 265° |
| 2026-05-06 09:15 | 36.15215 | -5.32212 | 334 ft | 134 kts | 265° |
| 2026-05-06 09:16 | 36.15171 | -5.33351 | 210 ft | 133 kts | 265° |
| 2026-05-06 09:16 | 36.15144 | -5.34472 | 26 ft | 126 kts | 264° |
| 2026-05-06 09:16 | 36.15097 | -5.35273 | 27 ft | 41 kts | 267° |
| 2026-05-06 09:16 | 36.15098 | -5.35317 | 25 ft | 2 kts | 277° |
| 2026-05-06 09:17 | 36.15101 | -5.35344 | 27 ft | 5 kts | 278° |
| 2026-05-06 09:17 | 36.15108 | -5.35397 | 25 ft | 7 kts | 276° |
| 2026-05-06 09:17 | 36.15084 | -5.35370 | 25 ft | 10 kts | 87° |
| 2026-05-06 09:17 | 36.15095 | -5.35275 | 26 ft | 12 kts | 78° |
| 2026-05-06 09:18 | 36.15110 | -5.35159 | 25 ft | 15 kts | 85° |
| 2026-05-06 09:18 | 36.15119 | -5.35024 | 27 ft | 17 kts | 87° |
| 2026-05-06 09:18 | 36.15122 | -5.34871 | 24 ft | 19 kts | 87° |
| 2026-05-06 09:18 | 36.15127 | -5.34747 | 27 ft | 0 kts | 86° |
| 2026-05-06 09:19 | 36.15128 | -5.34738 | 27 ft | 2 kts | 83° |
| 2026-05-06 09:19 | 36.15133 | -5.34713 | 23 ft | 4 kts | 57° |
| 2026-05-06 09:19 | 36.15163 | -5.34682 | 23 ft | 7 kts | 21° |
| 2026-05-06 09:19 | 36.15212 | -5.34652 | 24 ft | 10 kts | 56° |
| 2026-05-06 09:20 | 36.15269 | -5.34625 | 24 ft | 6 kts | 353° |
| 2026-05-06 09:20 | 36.15297 | -5.34626 | 24 ft | 0 kts | 341° |